< < Back
Terminal Aerodrome Forecast


Current Version              Previous Versions:   1  2  3  4  5  6  7  8  9  

Terminal Aerodrome Forecast

333
FTUS42 KTAE 161300 AAB
TAFDHN
TAF AMD
KDHN 161325Z 1613/1712 00000KT 2SM BR OVC002
      TEMPO 1613/1614 3/4SM BR BKN003
     FM161400 32003KT 3SM BR BKN006
     FM161600 30007KT P6SM VCTS SCT040CB BKN100
      TEMPO 1620/1624 3SM TSRA OVC030CB
     FM170200 36005KT P6SM SCT100 BKN250
     FM170600 35003KT P6SM SCT250=

Latest METAR

456
SAUS70 KWBC 161900 RRN
MTRDHN
METAR KDHN 161853Z 34020G24KT 10SM VCTS SCT036 BKN070 28/23 A3003 RMK
AO2 LTG DSNT E AND S AND NW TSB20 SLP164 T02780228


USA.gov is the U.S. government's official web portal to all federal, state and local government web resources and services.